Time;durP1;ratioP1;P1;durP2;ratioP2;P2;SDS_P1;SDS_P2;PMS_P1;PMS_P2;Temp;Humidity;BMP_temperature;BMP_pressure;BME280_temperature;BME280_humidity;BME280_pressure;Samples;Min_cycle;Max_cycle;Signal;HPM_P1;HPM_P2
2022/07/28 00:00:17;;;;;;;9.27;1.70;;;;;;;12.74;72.60;100773.44;5059230;28;20448;-67
2022/07/28 00:02:44;;;;;;;4.83;1.90;;;;;;;12.65;72.81;100771.59;5059409;28;20430;-67
2022/07/28 00:05:11;;;;;;;4.20;1.10;;;;;;;12.63;72.97;100766.38;5059282;28;20463;-66
2022/07/28 00:07:38;;;;;;;4.50;1.67;;;;;;;12.62;73.11;100777.28;5058781;28;20464;-67
2022/07/28 00:10:05;;;;;;;4.03;1.70;;;;;;;12.52;73.41;100760.31;5059671;28;20459;-67
2022/07/28 00:12:34;;;;;;;5.13;1.43;;;;;;;12.56;73.38;100777.81;5059101;28;20437;-67
2022/07/28 00:15:00;;;;;;;7.00;1.67;;;;;;;12.48;73.37;100775.84;5059296;28;20439;-69
2022/07/28 00:17:27;;;;;;;3.27;1.43;;;;;;;12.46;74.13;100776.97;5058380;28;20461;-68
2022/07/28 00:19:54;;;;;;;2.80;1.60;;;;;;;12.60;73.74;100781.91;5059468;28;21032;-67
2022/07/28 00:22:21;;;;;;;3.90;1.33;;;;;;;12.56;73.16;100778.66;5058526;28;20476;-67
2022/07/28 00:24:48;;;;;;;3.90;1.90;;;;;;;12.40;73.67;100784.59;5058825;28;20463;-67
2022/07/28 00:27:16;;;;;;;3.10;1.20;;;;;;;12.37;74.05;100779.50;5058784;28;20949;-67
2022/07/28 00:29:44;;;;;;;3.10;1.73;;;;;;;12.41;73.82;100774.69;5059280;28;20488;-66
2022/07/28 00:32:11;;;;;;;3.00;1.40;;;;;;;12.37;74.06;100784.84;5058074;28;20553;-66
2022/07/28 00:34:38;;;;;;;4.13;1.50;;;;;;;12.36;74.11;100780.50;5057987;28;20457;-66
2022/07/28 00:37:05;;;;;;;3.50;1.40;;;;;;;12.37;73.93;100779.50;5057829;28;20477;-67
2022/07/28 00:39:31;;;;;;;9.40;1.90;;;;;;;12.31;74.26;100777.38;5058109;28;20479;-66
2022/07/28 00:41:58;;;;;;;3.20;1.53;;;;;;;12.32;74.41;100771.00;5058077;28;20489;-66
2022/07/28 00:44:25;;;;;;;3.83;1.37;;;;;;;12.34;74.78;100782.47;5057815;28;20483;-66
2022/07/28 00:46:53;;;;;;;7.47;1.70;;;;;;;12.31;75.05;100772.03;5057258;28;20492;-67
2022/07/28 00:49:20;;;;;;;3.20;1.60;;;;;;;12.28;75.03;100776.81;5058697;28;20437;-66
2022/07/28 00:51:47;;;;;;;4.77;1.73;;;;;;;12.21;75.46;100766.63;5057860;28;20498;-67
2022/07/28 00:54:14;;;;;;;6.50;1.80;;;;;;;12.19;75.31;100765.09;5057952;28;20546;-67
2022/07/28 00:56:40;;;;;;;2.90;1.67;;;;;;;12.25;75.61;100764.50;5057806;28;20476;-66
2022/07/28 00:59:07;;;;;;;3.60;1.83;;;;;;;12.17;76.10;100762.53;5058353;28;20926;-67
2022/07/28 01:01:34;;;;;;;4.33;2.37;;;;;;;12.18;76.50;100763.38;5058020;28;20472;-67
2022/07/28 01:04:03;;;;;;;5.20;2.00;;;;;;;12.13;76.92;100765.63;5058495;28;20449;-66
2022/07/28 01:06:39;;;;;;;6.23;2.23;;;;;;;12.10;76.74;100761.41;5058370;28;20539;-67
2022/07/28 01:09:12;;;;;;;5.63;1.93;;;;;;;12.08;76.26;100760.66;5060120;28;20456;-67
2022/07/28 01:11:50;;;;;;;3.00;1.57;;;;;;;12.05;76.60;100758.28;5061951;28;20499;-67
2022/07/28 01:14:37;;;;;;;4.67;1.60;;;;;;;12.00;76.68;100755.19;5062062;28;20515;-66
2022/07/28 01:17:08;;;;;;;5.03;1.70;;;;;;;12.00;76.75;100750.66;5061744;28;20518;-67
2022/07/28 01:19:41;;;;;;;3.10;1.90;;;;;;;11.94;76.68;100751.19;5062624;28;20433;-67
2022/07/28 01:22:10;;;;;;;3.20;1.77;;;;;;;11.90;77.08;100760.47;5061930;28;20514;-66
2022/07/28 01:24:45;;;;;;;8.90;2.20;;;;;;;11.86;77.65;100759.06;5061969;28;20448;-67
2022/07/28 01:27:24;;;;;;;1.90;1.57;;;;;;;11.82;78.00;100758.47;5061710;28;20515;-67
2022/07/28 01:30:04;;;;;;;4.43;2.33;;;;;;;11.80;78.13;100751.53;5062243;28;20433;-67
2022/07/28 01:32:36;;;;;;;7.83;1.93;;;;;;;11.75;78.37;100751.09;5060849;28;20492;-66
2022/07/28 01:35:09;;;;;;;3.00;2.03;;;;;;;11.73;78.05;100755.75;5061429;28;20452;-67
2022/07/28 01:37:41;;;;;;;1.90;1.57;;;;;;;11.74;78.34;100744.91;5060520;28;20472;-67
2022/07/28 01:40:09;;;;;;;6.13;2.20;;;;;;;11.74;78.92;100744.06;5060850;28;20491;-67
2022/07/28 01:42:40;;;;;;;3.70;2.30;;;;;;;11.74;79.08;100750.28;5061253;28;21017;-67
2022/07/28 01:45:09;;;;;;;5.30;1.70;;;;;;;11.79;78.57;100749.88;5061113;28;20456;-66
2022/07/28 01:47:37;;;;;;;3.67;2.20;;;;;;;11.73;78.49;100751.25;5060414;28;20465;-67
2022/07/28 01:50:08;;;;;;;3.23;2.63;;;;;;;11.65;78.87;100748.41;5061416;28;20555;-66
2022/07/28 01:52:35;;;;;;;4.80;2.30;;;;;;;11.67;78.71;100752.63;5060528;28;20479;-66
2022/07/28 01:55:03;;;;;;;6.97;2.13;;;;;;;11.64;79.00;100750.22;5061570;28;20433;-67
2022/07/28 01:57:31;;;;;;;3.70;1.60;;;;;;;11.62;79.19;100752.19;5060755;28;20481;-67
2022/07/28 01:59:59;;;;;;;3.03;1.70;;;;;;;11.61;79.31;100742.47;5060875;28;20500;-66
2022/07/28 02:02:27;;;;;;;2.33;1.40;;;;;;;11.61;79.69;100739.81;5060709;28;20473;-66
2022/07/28 02:04:57;;;;;;;4.23;1.90;;;;;;;11.57;79.88;100734.84;5060996;28;20457;-67
2022/07/28 02:07:25;;;;;;;5.87;2.03;;;;;;;11.50;80.09;100735.38;5060455;28;20504;-67
2022/07/28 02:09:53;;;;;;;4.20;1.93;;;;;;;11.43;80.30;100731.53;5060396;28;20840;-66
2022/07/28 02:12:20;;;;;;;7.13;2.37;;;;;;;11.46;80.13;100730.44;5060727;28;20468;-67
2022/07/28 02:14:48;;;;;;;5.00;2.10;;;;;;;11.45;80.00;100731.41;5060620;28;20479;-67
2022/07/28 02:17:19;;;;;;;6.63;2.90;;;;;;;11.44;79.68;100727.03;5060042;28;20468;-67
2022/07/28 02:19:47;;;;;;;4.33;1.87;;;;;;;11.40;80.24;100728.28;5060566;28;20459;-67
2022/07/28 02:22:16;;;;;;;2.10;1.70;;;;;;;11.44;80.24;100735.06;5060513;28;21015;-67
2022/07/28 02:24:44;;;;;;;5.03;2.27;;;;;;;11.44;80.58;100727.03;5060617;28;20543;-67
2022/07/28 02:27:15;;;;;;;4.23;1.70;;;;;;;11.48;80.33;100728.47;5060323;28;21344;-67
2022/07/28 02:29:45;;;;;;;3.60;2.00;;;;;;;11.49;80.42;100736.38;5060497;28;20464;-67
2022/07/28 02:32:16;;;;;;;2.93;2.30;;;;;;;11.52;80.62;100732.56;5060271;28;20481;-66
2022/07/28 02:34:44;;;;;;;3.47;1.63;;;;;;;11.49;80.94;100731.00;5060414;28;20464;-67
2022/07/28 02:37:14;;;;;;;6.43;2.47;;;;;;;11.42;80.65;100718.28;5059941;28;20476;-67
2022/07/28 02:39:50;;;;;;;7.10;2.57;;;;;;;11.44;80.81;100732.38;5059878;28;20453;-67
2022/07/28 02:42:18;;;;;;;3.60;2.07;;;;;;;11.48;80.64;100733.81;5060079;28;20476;-66
2022/07/28 02:44:48;;;;;;;5.93;2.40;;;;;;;11.50;80.94;100738.03;5060156;28;20456;-67
2022/07/28 02:47:18;;;;;;;2.60;2.00;;;;;;;11.56;80.56;100733.13;5058961;28;20713;-67
2022/07/28 02:49:46;;;;;;;6.90;2.67;;;;;;;11.59;80.61;100733.72;5059707;28;20456;-66
2022/07/28 02:52:13;;;;;;;3.50;2.13;;;;;;;11.64;80.45;100730.63;5059676;28;20477;-67
2022/07/28 02:54:42;;;;;;;7.47;2.30;;;;;;;11.62;80.36;100736.13;5059945;28;20458;-67
2022/07/28 02:57:09;;;;;;;4.97;2.80;;;;;;;11.61;80.49;100728.22;5059625;28;20473;-67
2022/07/28 02:59:37;;;;;;;5.90;2.00;;;;;;;11.60;80.15;100731.91;5060331;28;20515;-67
2022/07/28 03:02:04;;;;;;;4.70;2.10;;;;;;;11.52;80.24;100731.72;5059431;28;20480;-66
2022/07/28 03:07:16;;;;;;;4.33;2.43;;;;;;;11.55;80.22;100732.28;5059969;28;20561;-66
2022/07/28 03:09:45;;;;;;;2.63;1.73;;;;;;;11.52;80.07;100734.41;5059715;28;21011;-66
2022/07/28 03:12:12;;;;;;;3.60;2.17;;;;;;;11.54;80.39;100733.25;5059733;28;20526;-67
2022/07/28 03:14:39;;;;;;;3.60;2.20;;;;;;;11.55;80.05;100731.47;5060460;28;20460;-66
2022/07/28 03:17:06;;;;;;;3.90;1.90;;;;;;;11.53;79.98;100739.63;5059595;28;20472;-66
2022/07/28 03:19:33;;;;;;;3.90;2.30;;;;;;;11.54;80.46;100738.63;5060318;28;20421;-66
2022/07/28 03:22:00;;;;;;;3.30;2.27;;;;;;;11.45;80.28;100742.13;5059693;28;20468;-66
2022/07/28 03:24:29;;;;;;;5.37;3.27;;;;;;;11.38;80.46;100738.28;5059833;28;20449;-66
2022/07/28 03:27:01;;;;;;;12.30;2.50;;;;;;;11.39;80.54;100740.84;5059073;28;21325;-66
2022/07/28 03:29:29;;;;;;;3.80;2.70;;;;;;;11.34;80.68;100739.53;5060137;28;20457;-66
2022/07/28 03:31:56;;;;;;;4.40;2.30;;;;;;;11.33;80.22;100738.69;5058701;28;21025;-67
2022/07/28 03:34:23;;;;;;;3.73;2.03;;;;;;;11.37;80.12;100742.81;5059538;28;20456;-66
2022/07/28 03:36:54;;;;;;;6.33;2.60;;;;;;;11.36;80.18;100737.56;5058566;28;21111;-67
2022/07/28 03:39:24;;;;;;;2.53;2.00;;;;;;;11.34;79.91;100745.75;5059350;28;20457;-68
2022/07/28 03:41:52;;;;;;;4.63;2.53;;;;;;;11.35;79.99;100742.06;5058782;28;20483;-67
2022/07/28 03:44:21;;;;;;;3.10;2.43;;;;;;;11.37;79.85;100741.94;5059385;28;20487;-66
2022/07/28 03:46:48;;;;;;;4.60;2.47;;;;;;;11.36;79.80;100729.53;5057811;28;20484;-66
2022/07/28 03:49:14;;;;;;;9.50;2.20;;;;;;;11.59;78.94;100740.91;5059126;28;20467;-66
2022/07/28 03:51:41;;;;;;;4.37;2.03;;;;;;;12.21;77.38;100744.34;5058954;28;20473;-67
2022/07/28 03:54:08;;;;;;;3.63;2.17;;;;;;;12.71;75.26;100756.78;5058696;28;20533;-66
2022/07/28 03:56:35;;;;;;;2.53;2.10;;;;;;;13.22;72.58;100763.63;5058326;28;20476;-66
2022/07/28 03:59:02;;;;;;;5.47;1.90;;;;;;;13.14;71.64;100769.72;5059268;28;20429;-66
2022/07/28 04:01:30;;;;;;;3.10;1.67;;;;;;;13.07;73.05;100773.13;5058797;28;20469;-67
2022/07/28 04:03:57;;;;;;;9.00;2.60;;;;;;;13.66;70.12;100773.81;5058660;28;20452;-66
2022/07/28 04:06:23;;;;;;;4.03;2.20;;;;;;;12.99;71.86;100763.13;5058331;28;20472;-66
2022/07/28 04:08:50;;;;;;;2.83;2.63;;;;;;;12.57;73.09;100760.75;5058302;28;20492;-67
2022/07/28 04:11:17;;;;;;;3.23;2.03;;;;;;;12.65;73.88;100757.34;5058541;28;20472;-67
2022/07/28 04:13:44;;;;;;;3.43;2.10;;;;;;;12.40;75.08;100754.25;5058743;28;20456;-67
2022/07/28 04:16:11;;;;;;;4.10;2.03;;;;;;;12.32;75.14;100760.28;5058682;28;20468;-67
2022/07/28 04:18:39;;;;;;;4.60;2.23;;;;;;;12.18;75.97;100756.19;5058851;28;20425;-67
2022/07/28 04:21:06;;;;;;;6.60;2.83;;;;;;;12.54;78.23;100752.97;5058606;28;20476;-67
2022/07/28 04:23:33;;;;;;;6.93;2.40;;;;;;;12.93;75.50;100752.94;5058200;28;20496;-67
2022/07/28 04:26:00;;;;;;;4.07;1.87;;;;;;;12.95;73.29;100759.88;5058151;28;20476;-67
2022/07/28 04:28:27;;;;;;;4.30;1.90;;;;;;;12.63;75.41;100758.31;5058794;28;20468;-67
2022/07/28 04:30:53;;;;;;;5.30;2.13;;;;;;;12.95;74.83;100740.22;5058354;28;20511;-67
2022/07/28 04:33:20;;;;;;;3.50;1.93;;;;;;;12.94;73.28;100744.75;5058343;28;20456;-67
2022/07/28 04:35:48;;;;;;;3.93;2.33;;;;;;;12.76;74.79;100752.69;5058099;28;20578;-67
2022/07/28 04:38:16;;;;;;;2.80;1.87;;;;;;;12.86;74.26;100741.94;5058266;28;20488;-67
2022/07/28 04:40:43;;;;;;;3.00;2.13;;;;;;;13.08;73.72;100748.81;5058097;28;20461;-67
2022/07/28 04:43:10;;;;;;;4.37;2.13;;;;;;;13.18;72.31;100744.28;5057340;28;20429;-67
2022/07/28 04:45:37;;;;;;;7.40;2.23;;;;;;;13.37;72.18;100740.72;5072404;28;20472;-67
2022/07/28 04:48:04;;;;;;;2.87;2.20;;;;;;;13.62;71.11;100745.56;5076912;28;20495;-67
2022/07/28 04:50:32;;;;;;;4.20;1.90;;;;;;;13.53;71.65;100737.41;5085025;28;20551;-68
2022/07/28 04:53:00;;;;;;;2.80;1.50;;;;;;;13.74;70.63;100753.28;5101214;28;20428;-67
2022/07/28 04:55:27;;;;;;;5.30;2.27;;;;;;;15.02;67.27;100742.47;5101227;27;20475;-67
2022/07/28 04:57:53;;;;;;;2.93;2.30;;;;;;;15.53;63.92;100738.03;5102094;28;20449;-67
2022/07/28 05:00:21;;;;;;;2.50;1.73;;;;;;;14.87;64.78;100743.00;5101678;27;20438;-67
2022/07/28 05:02:48;;;;;;;2.43;1.77;;;;;;;14.27;66.94;100738.25;5101397;28;20442;-67
2022/07/28 05:05:15;;;;;;;3.13;2.17;;;;;;;14.01;68.85;100737.28;5101124;27;20450;-67
2022/07/28 05:07:41;;;;;;;5.63;2.80;;;;;;;13.83;68.76;100743.47;5101837;28;20462;-66
2022/07/28 05:10:11;;;;;;;4.70;2.27;;;;;;;13.93;69.39;100738.88;5100562;27;20535;-66
2022/07/28 05:12:38;;;;;;;2.60;1.93;;;;;;;14.19;67.90;100740.03;5101651;28;20496;-67
2022/07/28 05:15:06;;;;;;;5.60;2.80;;;;;;;14.48;67.01;100739.81;5101353;28;20535;-67
2022/07/28 05:17:33;;;;;;;7.63;2.67;;;;;;;15.18;65.00;100747.09;5079942;28;20452;-67
2022/07/28 05:20:00;;;;;;;5.33;2.47;;;;;;;16.72;61.12;100742.41;5080451;28;20444;-67
2022/07/28 05:22:27;;;;;;;3.83;2.00;;;;;;;18.18;55.34;100735.94;5100621;28;20532;-67
2022/07/28 05:24:53;;;;;;;4.90;2.00;;;;;;;19.54;51.47;100749.69;5100320;28;20611;-67
2022/07/28 05:27:22;;;;;;;3.77;2.23;;;;;;;20.11;47.96;100742.72;5100602;27;20474;-67
2022/07/28 05:29:48;;;;;;;4.60;1.93;;;;;;;18.50;50.74;100744.03;5101300;28;20435;-67
2022/07/28 05:32:16;;;;;;;4.07;2.20;;;;;;;16.94;55.83;100740.94;5099916;27;20466;-67
2022/07/28 05:34:42;;;;;;;3.47;1.90;;;;;;;17.72;53.40;100741.22;5101206;28;20443;-67
2022/07/28 05:37:09;;;;;;;5.93;2.00;;;;;;;20.07;47.96;100736.84;5099914;27;20536;-67
2022/07/28 05:39:36;;;;;;;4.70;1.70;;;;;;;20.99;45.35;100743.41;5098597;28;20479;-67
2022/07/28 05:42:03;;;;;;;5.07;2.00;;;;;;;20.27;46.47;100736.22;5098975;27;20504;-67
2022/07/28 05:44:31;;;;;;;2.27;1.70;;;;;;;21.23;43.71;100747.56;5099699;28;20459;-67
2022/07/28 05:46:58;;;;;;;6.87;1.63;;;;;;;21.74;42.87;100738.25;5097312;27;20474;-67
2022/07/28 05:49:25;;;;;;;4.63;1.93;;;;;;;21.65;42.53;100746.75;5099964;28;20462;-67
2022/07/28 05:51:51;;;;;;;4.10;1.80;;;;;;;22.30;41.18;100747.28;5099402;27;20535;-67
2022/07/28 05:54:18;;;;;;;3.90;1.87;;;;;;;22.65;41.16;100749.84;5097360;28;20447;-67
2022/07/28 05:56:46;;;;;;;3.93;1.30;;;;;;;22.20;42.05;100747.63;5099453;27;20507;-68
2022/07/28 05:59:13;;;;;;;4.40;1.90;;;;;;;22.96;39.96;100746.50;5099784;28;20427;-67
2022/07/28 06:01:41;;;;;;;6.73;2.03;;;;;;;22.85;40.33;100749.88;5098177;27;20849;-67
2022/07/28 06:04:08;;;;;;;6.80;1.83;;;;;;;22.49;40.71;100749.19;5099189;28;20447;-67
2022/07/28 06:06:35;;;;;;;6.87;2.40;;;;;;;23.16;39.71;100751.13;5098808;27;20474;-66
2022/07/28 06:09:02;;;;;;;4.00;1.90;;;;;;;24.07;38.25;100750.25;5097896;28;20478;-67
2022/07/28 06:11:28;;;;;;;3.33;1.83;;;;;;;24.05;37.63;100755.13;5098985;27;20576;-67
2022/07/28 06:13:55;;;;;;;2.60;1.50;;;;;;;24.03;37.88;100757.22;5099072;28;20480;-67
2022/07/28 06:16:22;;;;;;;4.20;1.87;;;;;;;24.28;36.03;100757.28;5098150;27;20471;-67
2022/07/28 06:18:51;;;;;;;4.30;1.80;;;;;;;24.38;37.10;100765.03;5088200;28;20451;-68
2022/07/28 06:21:18;;;;;;;3.70;1.63;;;;;;;24.27;36.87;100766.56;5088395;28;20479;-68
2022/07/28 06:23:44;;;;;;;2.97;1.50;;;;;;;24.37;36.82;100764.19;5098213;28;20454;-68
2022/07/28 06:26:11;;;;;;;2.70;1.37;;;;;;;23.34;37.18;100756.78;5089288;27;21279;-68
2022/07/28 06:28:38;;;;;;;3.07;1.37;;;;;;;24.20;35.30;100763.00;5079315;28;20464;-68
2022/07/28 06:31:05;;;;;;;4.90;1.40;;;;;;;24.39;35.51;100769.41;5085694;28;20498;-68
2022/07/28 06:33:32;;;;;;;2.80;1.40;;;;;;;25.61;33.60;100765.53;5099045;28;20485;-68
2022/07/28 06:36:00;;;;;;;5.03;1.50;;;;;;;24.90;34.12;100757.53;5048923;27;1200955;-67
2022/07/28 06:38:27;;;;;;;3.90;1.23;;;;;;;23.91;35.89;100756.22;5078339;28;20980;-68
2022/07/28 06:40:53;;;;;;;5.17;1.13;;;;;;;24.25;35.29;100764.06;5079613;28;20475;-68
2022/07/28 06:43:20;;;;;;;2.50;1.10;;;;;;;24.40;33.30;100763.75;5078920;28;20913;-68
2022/07/28 06:45:47;;;;;;;2.20;1.10;;;;;;;25.19;32.27;100763.41;5089636;28;20499;-67
2022/07/28 06:48:14;;;;;;;3.03;0.83;;;;;;;24.23;33.52;100770.78;5119317;28;20466;-67
2022/07/28 06:50:41;;;;;;;3.63;1.07;;;;;;;24.21;34.35;100767.44;5114955;28;20475;-67
2022/07/28 06:53:09;;;;;;;3.40;1.00;;;;;;;24.05;34.71;100763.31;5098164;28;20443;-68
2022/07/28 06:55:36;;;;;;;3.17;1.30;;;;;;;24.08;34.10;100759.28;5099294;28;20528;-67
2022/07/28 06:58:03;;;;;;;2.43;1.30;;;;;;;23.27;34.94;100761.41;5099976;28;20884;-67
2022/07/28 07:00:31;;;;;;;5.17;1.33;;;;;;;23.68;35.24;100757.53;5098166;28;20482;-67
2022/07/28 07:02:57;;;;;;;3.90;1.23;;;;;;;23.01;36.24;100763.06;5099865;28;20427;-67
2022/07/28 07:05:27;;;;;;;4.97;1.60;;;;;;;22.57;35.86;100761.78;5098518;28;20446;-67
2022/07/28 07:07:53;;;;;;;3.33;1.10;;;;;;;22.08;37.42;100762.88;5097440;28;20434;-68
2022/07/28 07:10:22;;;;;;;4.50;1.13;;;;;;;21.71;38.64;100762.31;5099183;28;20508;-65
2022/07/28 07:12:49;;;;;;;3.30;0.90;;;;;;;22.21;37.12;100762.09;5099199;28;21230;-65
2022/07/28 07:15:15;;;;;;;2.70;0.97;;;;;;;22.06;37.16;100756.78;5097553;28;20455;-66
2022/07/28 07:17:43;;;;;;;2.00;0.70;;;;;;;21.69;37.27;100761.66;5098347;28;20419;-66
2022/07/28 07:20:12;;;;;;;2.70;1.13;;;;;;;22.81;35.82;100757.63;5098941;28;20447;-66
2022/07/28 07:22:42;;;;;;;2.07;0.77;;;;;;;23.38;35.29;100763.47;5098355;28;20437;-67
2022/07/28 07:25:10;;;;;;;3.27;1.00;;;;;;;22.79;35.10;100750.69;5098111;28;20459;-68
2022/07/28 07:27:39;;;;;;;2.63;0.80;;;;;;;24.20;33.42;100754.81;5099043;28;20444;-66
2022/07/28 07:30:07;;;;;;;3.30;0.90;;;;;;;24.23;33.39;100757.97;5098250;28;20459;-67
2022/07/28 07:32:34;;;;;;;5.47;0.97;;;;;;;23.85;33.81;100741.53;5098400;28;20985;-66
2022/07/28 07:35:01;;;;;;;2.50;0.77;;;;;;;23.01;35.50;100749.44;5098952;28;20512;-67
2022/07/28 07:37:31;;;;;;;4.30;1.10;;;;;;;22.54;35.72;100748.56;5097386;28;20483;-66
2022/07/28 07:39:58;;;;;;;3.87;0.80;;;;;;;22.38;36.66;100736.19;5098846;28;20455;-66
2022/07/28 07:42:25;;;;;;;3.43;1.20;;;;;;;22.23;36.20;100749.09;5097912;28;20486;-66
2022/07/28 07:44:53;;;;;;;2.70;0.77;;;;;;;22.19;37.16;100740.50;5097740;28;21150;-66
2022/07/28 07:47:20;;;;;;;4.50;0.90;;;;;;;23.16;35.90;100738.34;5097747;28;20501;-66
2022/07/28 07:49:46;;;;;;;6.13;0.90;;;;;;;23.37;35.61;100745.44;5098574;28;21030;-66
2022/07/28 07:52:13;;;;;;;2.20;0.93;;;;;;;22.81;36.99;100744.00;5097152;28;20474;-67
2022/07/28 07:54:40;;;;;;;4.47;1.03;;;;;;;22.79;36.25;100737.88;5098069;28;20447;-67
2022/07/28 07:57:07;;;;;;;4.90;1.00;;;;;;;23.18;35.37;100736.25;5098198;28;20471;-66
2022/07/28 07:59:34;;;;;;;1.70;0.70;;;;;;;23.18;35.20;100736.25;5097655;28;20423;-67
2022/07/28 08:02:02;;;;;;;3.37;1.10;;;;;;;23.71;34.67;100735.25;5097751;28;20470;-66
2022/07/28 08:04:29;;;;;;;4.10;1.03;;;;;;;24.57;32.56;100728.56;5098092;28;21006;-67
2022/07/28 08:06:55;;;;;;;3.63;1.30;;;;;;;24.54;33.13;100729.00;5097036;28;20470;-67
2022/07/28 08:09:22;;;;;;;3.40;1.03;;;;;;;24.21;34.19;100729.19;5098031;28;20474;-67
2022/07/28 08:11:49;;;;;;;6.00;1.03;;;;;;;24.87;32.50;100727.06;5097724;28;20470;-67
2022/07/28 08:14:16;;;;;;;4.53;1.20;;;;;;;25.70;31.73;100736.78;5097242;28;20455;-67
2022/07/28 08:16:43;;;;;;;2.60;0.83;;;;;;;24.40;33.67;100724.66;5097402;28;20471;-68
2022/07/28 08:19:12;;;;;;;4.13;1.00;;;;;;;25.35;33.12;100740.94;5097614;28;20435;-68
2022/07/28 08:21:39;;;;;;;3.13;0.80;;;;;;;25.88;32.43;100733.16;5096593;28;20528;-68
2022/07/28 08:24:06;;;;;;;5.50;1.10;;;;;;;24.93;32.15;100734.34;5097899;28;20510;-67
2022/07/28 08:26:33;;;;;;;4.30;0.80;;;;;;;25.69;31.29;100729.59;5098044;28;21141;-67
2022/07/28 08:29:00;;;;;;;4.20;1.00;;;;;;;27.13;29.19;100723.28;5097294;28;20471;-66
2022/07/28 08:31:27;;;;;;;4.00;1.10;;;;;;;27.60;29.28;100722.41;5097848;28;20481;-66
2022/07/28 08:33:54;;;;;;;3.60;1.10;;;;;;;26.44;30.29;100726.53;5098378;28;20497;-67
2022/07/28 08:36:30;;;;;;;3.60;0.63;;;;;;;27.07;29.91;100718.75;5096645;28;20470;-67
2022/07/28 08:38:57;;;;;;;1.90;0.73;;;;;;;27.20;28.29;100712.19;5097797;28;20446;-67
2022/07/28 08:41:30;;;;;;;3.37;0.83;;;;;;;26.81;29.30;100718.16;5097797;28;20478;-68
2022/07/28 08:43:59;;;;;;;5.00;1.60;;;;;;;26.10;29.95;100725.31;5096931;28;21245;-66
2022/07/28 08:46:27;;;;;;;5.40;0.83;;;;;;;24.63;32.87;100721.34;5096435;28;20470;-66
2022/07/28 08:48:54;;;;;;;4.27;1.40;;;;;;;26.37;30.77;100719.44;5098500;28;20454;-66
2022/07/28 08:51:27;;;;;;;5.00;1.03;;;;;;;27.18;28.19;100719.81;5096741;28;20497;-67
2022/07/28 08:53:54;;;;;;;2.40;0.90;;;;;;;27.46;28.25;100718.28;5097334;28;20455;-68
2022/07/28 08:56:21;;;;;;;1.77;0.90;;;;;;;27.69;28.19;100717.38;5097529;28;20471;-66
2022/07/28 08:58:48;;;;;;;1.80;0.80;;;;;;;26.60;30.30;100708.56;5097047;28;20464;-67
2022/07/28 09:01:14;;;;;;;2.47;1.20;;;;;;;27.53;30.33;100717.09;5098003;28;20510;-67
2022/07/28 09:03:41;;;;;;;3.33;1.17;;;;;;;26.27;29.83;100712.63;5097704;28;20451;-66
2022/07/28 09:06:08;;;;;;;2.10;1.10;;;;;;;27.13;28.96;100711.47;5096457;28;20474;-67
2022/07/28 09:08:37;;;;;;;5.40;1.30;;;;;;;28.19;27.94;100711.25;5097837;28;20447;-67
2022/07/28 09:11:05;;;;;;;2.50;1.10;;;;;;;27.61;27.45;100711.19;5097727;28;20900;-67
2022/07/28 09:13:31;;;;;;;4.70;1.13;;;;;;;27.52;28.78;100704.41;5096620;28;20441;-67
2022/07/28 09:15:59;;;;;;;6.77;1.47;;;;;;;26.81;29.16;100706.34;5097658;28;20475;-67
2022/07/28 09:18:26;;;;;;;3.07;0.90;;;;;;;27.90;29.07;100700.25;5096890;28;20438;-67
2022/07/28 09:20:53;;;;;;;2.07;0.97;;;;;;;28.42;27.33;100706.69;5103069;28;20476;-66
2022/07/28 09:23:20;;;;;;;4.50;1.13;;;;;;;26.70;29.36;100704.41;5117694;28;21093;-67
2022/07/28 09:25:48;;;;;;;3.70;1.10;;;;;;;26.27;30.70;100698.09;5117769;28;20469;-67
2022/07/28 09:28:17;;;;;;;2.90;1.07;;;;;;;27.01;29.41;100701.34;5117424;28;20430;-67
2022/07/28 09:30:45;;;;;;;4.30;1.27;;;;;;;26.71;29.87;100698.69;5120102;28;20482;-66
2022/07/28 09:33:17;;;;;;;3.57;1.43;;;;;;;27.18;28.16;100704.19;5122311;28;20456;-66
2022/07/28 09:35:50;;;;;;;5.17;1.13;;;;;;;26.89;29.91;100691.44;5119773;28;20485;-66
2022/07/28 09:38:16;;;;;;;2.60;0.90;;;;;;;26.70;30.38;100702.53;5121084;28;20481;-66
2022/07/28 09:40:52;;;;;;;3.93;1.10;;;;;;;26.94;29.58;100700.59;5120985;28;21006;-67
2022/07/28 09:43:31;;;;;;;2.03;1.20;;;;;;;27.76;29.38;100694.19;5120562;28;20496;-67
2022/07/28 09:46:07;;;;;;;2.90;1.17;;;;;;;27.63;28.39;100697.22;5120832;28;20530;-66
2022/07/28 09:48:34;;;;;;;3.80;1.30;;;;;;;27.95;28.60;100688.53;5121432;28;20418;-67
2022/07/28 09:51:12;;;;;;;2.93;1.23;;;;;;;24.23;34.10;100686.94;5119931;28;20473;-66
2022/07/28 09:53:39;;;;;;;3.43;1.17;;;;;;;26.04;32.08;100690.63;5121396;28;20510;-66
2022/07/28 09:56:06;;;;;;;5.13;1.13;;;;;;;25.46;32.66;100692.81;5121332;28;21345;-65
2022/07/28 09:58:34;;;;;;;2.83;1.10;;;;;;;26.71;30.50;100684.16;5121022;28;20426;-65
2022/07/28 10:01:05;;;;;;;3.50;1.10;;;;;;;25.76;31.14;100683.78;5121096;28;20503;-66
2022/07/28 10:03:33;;;;;;;4.63;1.30;;;;;;;27.15;30.28;100679.97;5121146;28;20506;-66
2022/07/28 10:06:07;;;;;;;3.00;1.00;;;;;;;25.56;31.95;100676.69;5119838;28;20877;-65
2022/07/28 10:08:45;;;;;;;2.20;1.03;;;;;;;25.13;33.14;100672.09;5121392;28;20458;-66
2022/07/28 10:11:15;;;;;;;3.83;1.40;;;;;;;25.63;32.76;100662.09;5120690;28;20464;-66
2022/07/28 10:14:02;;;;;;;4.17;1.20;;;;;;;23.73;35.54;100674.97;5120360;28;20441;-66
2022/07/28 10:16:31;;;;;;;3.97;0.97;;;;;;;25.85;31.92;100673.34;5120314;28;20501;-65
2022/07/28 10:18:59;;;;;;;3.57;0.90;;;;;;;27.10;29.33;100670.78;5119417;28;20442;-67
2022/07/28 10:21:27;;;;;;;3.17;1.50;;;;;;;27.21;29.72;100664.44;5120564;28;20470;-67
2022/07/28 10:23:55;;;;;;;4.30;1.10;;;;;;;26.32;30.31;100657.13;5120434;28;20774;-67
2022/07/28 10:26:26;;;;;;;3.27;0.97;;;;;;;26.43;30.60;100664.53;5119492;28;20470;-67
2022/07/28 10:28:54;;;;;;;2.60;1.00;;;;;;;27.39;30.02;100658.84;5120857;28;20494;-67
2022/07/28 10:31:35;;;;;;;3.73;1.50;;;;;;;27.80;28.97;100661.56;5120737;28;20466;-67
2022/07/28 10:34:04;;;;;;;4.87;1.10;;;;;;;28.48;27.97;100653.47;5119597;28;20515;-67
2022/07/28 10:36:32;;;;;;;3.23;1.20;;;;;;;28.06;27.92;100642.84;5120124;28;20512;-67
2022/07/28 10:39:06;;;;;;;3.10;1.20;;;;;;;26.96;29.59;100650.97;5119601;28;21012;-67
2022/07/28 10:41:39;;;;;;;3.20;0.83;;;;;;;28.02;29.51;100642.50;5117958;28;20482;-67
2022/07/28 10:44:12;;;;;;;1.30;0.80;;;;;;;25.55;32.53;100633.97;5120059;28;20510;-66
2022/07/28 10:46:40;;;;;;;4.40;1.33;;;;;;;24.89;33.65;100653.81;5118789;28;20494;-67
2022/07/28 10:49:08;;;;;;;4.80;1.40;;;;;;;24.14;33.85;100633.59;5119345;28;20437;-67
2022/07/28 10:51:35;;;;;;;4.80;1.00;;;;;;;24.50;34.25;100633.97;5120037;28;20478;-66
2022/07/28 10:54:08;;;;;;;2.50;1.03;;;;;;;26.06;31.19;100634.53;5119346;28;20954;-66
2022/07/28 10:56:45;;;;;;;3.00;1.27;;;;;;;27.26;29.36;100639.84;5118298;28;20520;-67
2022/07/28 10:59:22;;;;;;;4.50;1.10;;;;;;;27.75;29.03;100640.31;5119923;28;20448;-66
2022/07/28 11:01:49;;;;;;;5.80;1.27;;;;;;;27.71;28.12;100630.91;5119916;28;20513;-66
2022/07/28 11:04:51;;;;;;;4.67;1.13;;;;;;;26.63;30.70;100633.22;5118531;28;20475;-66
2022/07/28 11:07:18;;;;;;;4.30;1.57;;;;;;;26.38;29.15;100634.22;5119225;28;20497;-67
2022/07/28 11:09:46;;;;;;;4.33;1.00;;;;;;;25.56;31.69;100638.34;5119662;28;20799;-67
2022/07/28 11:12:14;;;;;;;3.57;1.17;;;;;;;26.45;30.49;100640.44;5117817;28;20498;-66
2022/07/28 11:14:42;;;;;;;3.47;0.90;;;;;;;26.34;31.37;100633.03;5119677;28;21024;-65
2022/07/28 11:17:16;;;;;;;2.83;1.00;;;;;;;27.14;29.47;100631.63;5118763;28;20470;-66
2022/07/28 11:20:04;;;;;;;2.53;1.20;;;;;;;28.73;28.65;100622.78;5118294;28;20467;-66
2022/07/28 11:22:32;;;;;;;5.33;1.10;;;;;;;28.10;27.52;100620.09;5116020;28;20474;-66
2022/07/28 11:25:13;;;;;;;3.20;1.33;;;;;;;26.94;29.02;100625.69;5119293;28;20450;-66
2022/07/28 11:28:04;;;;;;;3.40;1.03;;;;;;;27.17;29.71;100611.13;5118789;28;20933;-65
2022/07/28 11:30:53;;;;;;;4.00;0.90;;;;;;;27.58;29.12;100606.47;5116829;28;20473;-65
2022/07/28 11:33:23;;;;;;;2.07;1.03;;;;;;;26.89;29.17;100607.22;5119146;28;20430;-66